sensor_id;sensor_type;location;lat;lon;timestamp;pressure;altitude;pressure_sealevel;temperature;humidity
66524;BME280;53350;52.210;5.160;2023-10-08T00:01:37;102337.34;;;20.00;82.08
66524;BME280;53350;52.210;5.160;2023-10-08T00:04:07;102327.94;;;19.92;82.08
66524;BME280;53350;52.210;5.160;2023-10-08T00:06:34;102336.41;;;20.02;81.73
66524;BME280;53350;52.210;5.160;2023-10-08T00:09:00;102336.41;;;20.02;81.92
66524;BME280;53350;52.210;5.160;2023-10-08T00:11:31;102332.03;;;20.03;82.03
66524;BME280;53350;52.210;5.160;2023-10-08T00:13:58;102333.69;;;20.05;82.08
66524;BME280;53350;52.210;5.160;2023-10-08T00:16:26;102325.00;;;20.05;82.09
66524;BME280;53350;52.210;5.160;2023-10-08T00:18:55;102327.63;;;20.05;82.17
66524;BME280;53350;52.210;5.160;2023-10-08T00:21:25;102323.22;;;20.05;81.88
66524;BME280;53350;52.210;5.160;2023-10-08T00:23:52;102317.09;;;20.06;81.68
66524;BME280;53350;52.210;5.160;2023-10-08T00:26:20;102327.56;;;20.06;82.03
66524;BME280;53350;52.210;5.160;2023-10-08T00:28:54;102318.81;;;20.07;81.64
66524;BME280;53350;52.210;5.160;2023-10-08T00:31:21;102308.34;;;20.07;81.87
66524;BME280;53350;52.210;5.160;2023-10-08T00:33:51;102318.84;;;20.06;81.72
66524;BME280;53350;52.210;5.160;2023-10-08T00:36:19;102319.78;;;20.05;81.62
66524;BME280;53350;52.210;5.160;2023-10-08T00:38:46;102311.94;;;20.05;81.80
66524;BME280;53350;52.210;5.160;2023-10-08T00:41:15;102293.63;;;20.05;81.90
66524;BME280;53350;52.210;5.160;2023-10-08T00:43:41;102289.28;;;20.04;81.68
66524;BME280;53350;52.210;5.160;2023-10-08T00:46:16;102288.38;;;20.05;81.79
66524;BME280;53350;52.210;5.160;2023-10-08T00:48:49;102283.94;;;20.07;81.78
66524;BME280;53350;52.210;5.160;2023-10-08T00:51:19;102279.56;;;20.07;81.53
66524;BME280;53350;52.210;5.160;2023-10-08T00:53:59;102289.19;;;20.07;81.64
66524;BME280;53350;52.210;5.160;2023-10-08T00:56:33;102284.78;;;20.07;81.49
66524;BME280;53350;52.210;5.160;2023-10-08T00:59:15;102276.94;;;20.07;81.52
66524;BME280;53350;52.210;5.160;2023-10-08T01:01:43;102286.59;;;20.05;81.42
66524;BME280;53350;52.210;5.160;2023-10-08T01:04:16;102288.44;;;20.03;81.49
66524;BME280;53350;52.210;5.160;2023-10-08T01:06:46;102288.47;;;20.02;81.09
66524;BME280;53350;52.210;5.160;2023-10-08T01:09:14;102286.75;;;20.01;81.50
66524;BME280;53350;52.210;5.160;2023-10-08T01:11:44;102283.31;;;19.98;81.26
66524;BME280;53350;52.210;5.160;2023-10-08T01:14:15;102281.63;;;19.97;81.41
66524;BME280;53350;52.210;5.160;2023-10-08T01:16:42;102279.03;;;19.96;81.11
66524;BME280;53350;52.210;5.160;2023-10-08T01:19:17;102279.94;;;19.95;80.98
66524;BME280;53350;52.210;5.160;2023-10-08T01:21:46;102280.81;;;19.94;81.35
66524;BME280;53350;52.210;5.160;2023-10-08T01:24:14;102291.28;;;19.94;81.25
66524;BME280;53350;52.210;5.160;2023-10-08T01:26:42;102302.63;;;19.94;81.08
66524;BME280;53350;52.210;5.160;2023-10-08T01:29:10;102314.06;;;19.90;80.98
66524;BME280;53350;52.210;5.160;2023-10-08T01:31:44;102311.50;;;19.89;81.23
66524;BME280;53350;52.210;5.160;2023-10-08T01:34:11;102301.94;;;19.88;81.29
66524;BME280;53350;52.210;5.160;2023-10-08T01:36:41;102311.50;;;19.89;81.43
66524;BME280;53350;52.210;5.160;2023-10-08T01:39:09;102319.34;;;19.89;80.47
66524;BME280;53350;52.210;5.160;2023-10-08T01:41:42;102316.78;;;19.87;81.15
66524;BME280;53350;52.210;5.160;2023-10-08T01:44:09;102321.13;;;19.87;81.41
66524;BME280;53350;52.210;5.160;2023-10-08T01:46:36;102336.81;;;19.87;81.58
66524;BME280;53350;52.210;5.160;2023-10-08T01:49:05;102342.94;;;19.87;81.77
66524;BME280;53350;52.210;5.160;2023-10-08T01:51:38;102343.78;;;19.88;81.48
66524;BME280;53350;52.210;5.160;2023-10-08T01:54:12;102354.28;;;19.86;81.46
66524;BME280;53350;52.210;5.160;2023-10-08T01:56:41;102366.50;;;19.86;81.55
66524;BME280;53350;52.210;5.160;2023-10-08T01:59:08;102361.34;;;19.83;80.50
66524;BME280;53350;52.210;5.160;2023-10-08T02:01:35;102360.47;;;19.82;81.42
66524;BME280;53350;52.210;5.160;2023-10-08T02:04:01;102356.19;;;19.79;82.05
66524;BME280;53350;52.210;5.160;2023-10-08T02:06:28;102361.41;;;19.79;82.05
66524;BME280;53350;52.210;5.160;2023-10-08T02:08:56;102364.03;;;19.78;82.26
66524;BME280;53350;52.210;5.160;2023-10-08T02:11:23;102344.03;;;19.77;82.36
66524;BME280;53350;52.210;5.160;2023-10-08T02:13:54;102356.25;;;19.76;82.26
66524;BME280;53350;52.210;5.160;2023-10-08T02:16:20;102337.06;;;19.77;82.32
66524;BME280;53350;52.210;5.160;2023-10-08T02:18:47;102333.59;;;19.75;82.21
66524;BME280;53350;52.210;5.160;2023-10-08T02:21:15;102354.59;;;19.72;82.25
66524;BME280;53350;52.210;5.160;2023-10-08T02:23:41;102356.47;;;19.69;82.30
66524;BME280;53350;52.210;5.160;2023-10-08T02:26:09;102366.06;;;19.67;82.43
66524;BME280;53350;52.210;5.160;2023-10-08T02:28:36;102357.44;;;19.64;82.84
66524;BME280;53350;52.210;5.160;2023-10-08T02:31:05;102348.75;;;19.64;82.62
66524;BME280;53350;52.210;5.160;2023-10-08T02:33:34;102340.91;;;19.64;82.95
66524;BME280;53350;52.210;5.160;2023-10-08T02:36:02;102346.16;;;19.62;82.54
66524;BME280;53350;52.210;5.160;2023-10-08T02:38:29;102324.38;;;19.62;82.70
66524;BME280;53350;52.210;5.160;2023-10-08T02:41:02;102320.91;;;19.61;82.72
66524;BME280;53350;52.210;5.160;2023-10-08T02:43:31;102385.38;;;19.62;82.93
66524;BME280;53350;52.210;5.160;2023-10-08T02:45:59;102349.63;;;19.63;83.00
66524;BME280;53350;52.210;5.160;2023-10-08T02:48:27;102355.75;;;19.62;82.78
66524;BME280;53350;52.210;5.160;2023-10-08T02:50:55;102370.53;;;19.63;82.88
66524;BME280;53350;52.210;5.160;2023-10-08T02:53:32;102360.09;;;19.63;82.49
66524;BME280;53350;52.210;5.160;2023-10-08T02:55:58;102335.72;;;19.62;82.85
66524;BME280;53350;52.210;5.160;2023-10-08T02:58:25;102349.66;;;19.61;82.83
66524;BME280;53350;52.210;5.160;2023-10-08T03:00:53;102367.09;;;19.61;82.61
66524;BME280;53350;52.210;5.160;2023-10-08T03:03:19;102356.63;;;19.61;82.60
66524;BME280;53350;52.210;5.160;2023-10-08T03:05:49;102360.97;;;19.62;82.30
66524;BME280;53350;52.210;5.160;2023-10-08T03:08:16;102348.78;;;19.62;82.61
66524;BME280;53350;52.210;5.160;2023-10-08T03:10:44;102344.44;;;19.61;82.51
66524;BME280;53350;52.210;5.160;2023-10-08T03:13:11;102360.16;;;19.60;82.09
66524;BME280;53350;52.210;5.160;2023-10-08T03:15:38;102353.25;;;19.57;82.24
66524;BME280;53350;52.210;5.160;2023-10-08T03:18:06;102351.53;;;19.56;82.64
66524;BME280;53350;52.210;5.160;2023-10-08T03:20:35;102333.22;;;19.56;82.52
66524;BME280;53350;52.210;5.160;2023-10-08T03:23:10;102336.72;;;19.57;82.48
66524;BME280;53350;52.210;5.160;2023-10-08T03:25:50;102354.19;;;19.55;82.32
66524;BME280;53350;52.210;5.160;2023-10-08T03:28:22;102371.69;;;19.53;82.41
66524;BME280;53350;52.210;5.160;2023-10-08T03:30:50;102392.63;;;19.51;81.83
66524;BME280;53350;52.210;5.160;2023-10-08T03:33:16;102414.50;;;19.47;82.24
66524;BME280;53350;52.210;5.160;2023-10-08T03:35:48;102403.41;;;19.37;82.38
66524;BME280;53350;52.210;5.160;2023-10-08T03:38:16;102400.94;;;19.31;82.55
66524;BME280;53350;52.210;5.160;2023-10-08T03:40:54;102395.91;;;19.23;82.58
66524;BME280;53350;52.210;5.160;2023-10-08T03:43:22;102399.50;;;19.19;82.89
66524;BME280;53350;52.210;5.160;2023-10-08T03:45:59;102410.06;;;19.13;82.96
66524;BME280;53350;52.210;5.160;2023-10-08T03:48:31;102410.19;;;19.08;82.62
66524;BME280;53350;52.210;5.160;2023-10-08T03:51:01;102411.09;;;19.06;83.33
66524;BME280;53350;52.210;5.160;2023-10-08T03:53:38;102421.59;;;19.04;83.44
66524;BME280;53350;52.210;5.160;2023-10-08T03:56:23;102413.72;;;19.06;83.21
66524;BME280;53350;52.210;5.160;2023-10-08T03:58:50;102431.09;;;19.07;83.31
66524;BME280;53350;52.210;5.160;2023-10-08T04:01:19;102449.38;;;19.07;83.13
66524;BME280;53350;52.210;5.160;2023-10-08T04:03:46;102451.19;;;19.05;83.09
66524;BME280;53350;52.210;5.160;2023-10-08T04:06:24;102453.00;;;19.01;82.70
66524;BME280;53350;52.210;5.160;2023-10-08T04:08:57;102457.50;;;18.94;82.78
66524;BME280;53350;52.210;5.160;2023-10-08T04:11:36;102462.09;;;18.82;82.15
66524;BME280;53350;52.210;5.160;2023-10-08T04:14:15;102469.53;;;18.58;81.44
66524;BME280;53350;52.210;5.160;2023-10-08T04:16:42;102467.19;;;18.44;81.33
66524;BME280;53350;52.210;5.160;2023-10-08T04:19:09;102458.81;;;18.28;80.96
66524;BME280;53350;52.210;5.160;2023-10-08T04:21:35;102460.81;;;18.14;80.75
66524;BME280;53350;52.210;5.160;2023-10-08T04:24:03;102469.84;;;17.93;80.72
66524;BME280;53350;52.210;5.160;2023-10-08T04:26:33;102464.03;;;17.75;80.61
66524;BME280;53350;52.210;5.160;2023-10-08T04:29:01;102462.56;;;17.59;81.07
66524;BME280;53350;52.210;5.160;2023-10-08T04:31:32;102452.28;;;17.48;81.29
66524;BME280;53350;52.210;5.160;2023-10-08T04:34:08;102444.53;;;17.45;80.99
66524;BME280;53350;52.210;5.160;2023-10-08T04:36:41;102442.09;;;17.34;80.26
66524;BME280;53350;52.210;5.160;2023-10-08T04:39:11;102430.06;;;17.27;80.28
66524;BME280;53350;52.210;5.160;2023-10-08T04:41:40;102440.53;;;17.22;80.23
66524;BME280;53350;52.210;5.160;2023-10-08T04:44:08;102457.13;;;17.16;80.03
66524;BME280;53350;52.210;5.160;2023-10-08T04:46:40;102482.28;;;17.16;79.82
66524;BME280;53350;52.210;5.160;2023-10-08T04:49:13;102484.09;;;17.11;79.50
66524;BME280;53350;52.210;5.160;2023-10-08T04:51:53;102490.28;;;17.02;79.37
66524;BME280;53350;52.210;5.160;2023-10-08T04:54:24;102491.19;;;16.99;79.61
66524;BME280;53350;52.210;5.160;2023-10-08T04:56:55;102498.13;;;17.00;79.12
66524;BME280;53350;52.210;5.160;2023-10-08T04:59:23;102496.44;;;16.96;78.94
66524;BME280;53350;52.210;5.160;2023-10-08T05:01:58;102487.88;;;16.83;79.11
66524;BME280;53350;52.210;5.160;2023-10-08T05:04:38;102489.66;;;16.77;79.41
66524;BME280;53350;52.210;5.160;2023-10-08T05:07:21;102481.94;;;16.71;79.55
66524;BME280;53350;52.210;5.160;2023-10-08T05:10:07;102493.25;;;16.68;79.27
66524;BME280;53350;52.210;5.160;2023-10-08T05:12:57;102496.78;;;16.62;79.42
66524;BME280;53350;52.210;5.160;2023-10-08T05:15:40;102495.09;;;16.57;79.19
66524;BME280;53350;52.210;5.160;2023-10-08T05:18:15;102503.81;;;16.54;79.42
66524;BME280;53350;52.210;5.160;2023-10-08T05:20:49;102519.44;;;16.51;79.45
66524;BME280;53350;52.210;5.160;2023-10-08T05:23:41;102515.13;;;16.50;79.06
66524;BME280;53350;52.210;5.160;2023-10-08T05:26:38;102505.72;;;16.37;79.87
66524;BME280;53350;52.210;5.160;2023-10-08T05:29:08;102510.13;;;16.30;80.21
66524;BME280;53350;52.210;5.160;2023-10-08T05:31:49;102510.16;;;16.25;80.33
66524;BME280;53350;52.210;5.160;2023-10-08T05:34:35;102513.66;;;16.23;80.43
66524;BME280;53350;52.210;5.160;2023-10-08T05:37:09;102521.44;;;16.23;80.68
66524;BME280;53350;52.210;5.160;2023-10-08T05:39:58;102524.13;;;16.10;81.66
66524;BME280;53350;52.210;5.160;2023-10-08T05:42:38;102548.38;;;16.17;81.01
66524;BME280;53350;52.210;5.160;2023-10-08T05:45:12;102559.66;;;16.13;81.20
66524;BME280;53350;52.210;5.160;2023-10-08T05:47:39;102552.00;;;15.94;81.98
66524;BME280;53350;52.210;5.160;2023-10-08T05:50:16;102543.28;;;16.00;81.58
66524;BME280;53350;52.210;5.160;2023-10-08T05:53:04;102539.88;;;15.96;82.28
66524;BME280;53350;52.210;5.160;2023-10-08T05:55:44;102517.31;;;15.98;82.28
66524;BME280;53350;52.210;5.160;2023-10-08T05:58:14;102506.88;;;16.03;82.15
66524;BME280;53350;52.210;5.160;2023-10-08T06:00:50;102519.00;;;16.04;82.06
66524;BME280;53350;52.210;5.160;2023-10-08T06:03:34;102529.41;;;16.03;81.88
66524;BME280;53350;52.210;5.160;2023-10-08T06:06:03;102539.91;;;15.93;82.00
66524;BME280;53350;52.210;5.160;2023-10-08T06:08:43;102556.34;;;15.94;82.25
66524;BME280;53350;52.210;5.160;2023-10-08T06:11:33;102558.94;;;15.92;82.50
66524;BME280;53350;52.210;5.160;2023-10-08T06:14:08;102567.66;;;15.84;82.62
66524;BME280;53350;52.210;5.160;2023-10-08T06:16:42;102567.72;;;15.79;82.84
66524;BME280;53350;52.210;5.160;2023-10-08T06:19:10;102575.50;;;15.74;82.89
66524;BME280;53350;52.210;5.160;2023-10-08T06:21:37;102570.31;;;15.68;83.45
66524;BME280;53350;52.210;5.160;2023-10-08T06:24:04;102574.69;;;15.66;83.29
66524;BME280;53350;52.210;5.160;2023-10-08T06:26:34;102569.50;;;15.64;83.30
66524;BME280;53350;52.210;5.160;2023-10-08T06:29:04;102572.09;;;15.63;83.32
66524;BME280;53350;52.210;5.160;2023-10-08T06:31:46;102570.34;;;15.67;82.88
66524;BME280;53350;52.210;5.160;2023-10-08T06:34:17;102567.69;;;15.71;82.79
66524;BME280;53350;52.210;5.160;2023-10-08T06:36:47;102570.28;;;15.77;82.33
66524;BME280;53350;52.210;5.160;2023-10-08T06:39:13;102591.09;;;15.80;82.13
66524;BME280;53350;52.210;5.160;2023-10-08T06:41:44;102591.09;;;15.79;81.97
66524;BME280;53350;52.210;5.160;2023-10-08T06:44:11;102584.13;;;15.81;81.80
66524;BME280;53350;52.210;5.160;2023-10-08T06:46:40;102598.88;;;15.82;81.58
66524;BME280;53350;52.210;5.160;2023-10-08T06:49:09;102599.75;;;15.79;80.82
66524;BME280;53350;52.210;5.160;2023-10-08T06:51:39;102594.53;;;15.82;81.06
66524;BME280;53350;52.210;5.160;2023-10-08T06:54:07;102597.13;;;15.82;80.31
66524;BME280;53350;52.210;5.160;2023-10-08T06:56:36;102598.84;;;15.85;79.68
66524;BME280;53350;52.210;5.160;2023-10-08T06:59:02;102606.63;;;15.87;79.58
66524;BME280;53350;52.210;5.160;2023-10-08T07:01:30;102612.66;;;15.89;78.69
66524;BME280;53350;52.210;5.160;2023-10-08T07:04:04;102610.06;;;15.92;78.09
66524;BME280;53350;52.210;5.160;2023-10-08T07:06:33;102610.94;;;15.89;78.08
66524;BME280;53350;52.210;5.160;2023-10-08T07:09:03;102609.22;;;15.87;78.26
66524;BME280;53350;52.210;5.160;2023-10-08T07:11:31;102599.69;;;15.87;78.13
66524;BME280;53350;52.210;5.160;2023-10-08T07:14:00;102617.88;;;15.86;78.01
66524;BME280;53350;52.210;5.160;2023-10-08T07:16:26;102615.31;;;15.84;77.88
66524;BME280;53350;52.210;5.160;2023-10-08T07:18:53;102613.56;;;15.89;77.70
66524;BME280;53350;52.210;5.160;2023-10-08T07:21:26;102602.28;;;15.86;77.79
66524;BME280;53350;52.210;5.160;2023-10-08T07:23:56;102618.75;;;15.89;77.80
66524;BME280;53350;52.210;5.160;2023-10-08T07:26:24;102614.41;;;15.88;77.68
66524;BME280;53350;52.210;5.160;2023-10-08T07:28:51;102605.72;;;15.92;77.99
66524;BME280;53350;52.210;5.160;2023-10-08T07:31:19;102608.31;;;15.95;78.05
66524;BME280;53350;52.210;5.160;2023-10-08T07:33:47;102606.56;;;16.01;77.95
66524;BME280;53350;52.210;5.160;2023-10-08T07:36:20;102605.63;;;16.05;77.83
66524;BME280;53350;52.210;5.160;2023-10-08T07:38:47;102612.59;;;16.01;77.50
66524;BME280;53350;52.210;5.160;2023-10-08T07:41:15;102622.09;;;16.07;77.30
66524;BME280;53350;52.210;5.160;2023-10-08T07:43:41;102629.00;;;16.11;76.90
66524;BME280;53350;52.210;5.160;2023-10-08T07:46:08;102632.47;;;16.11;76.76
66524;BME280;53350;52.210;5.160;2023-10-08T07:48:35;102647.22;;;16.11;76.77
66524;BME280;53350;52.210;5.160;2023-10-08T07:51:01;102650.63;;;16.14;76.62
66524;BME280;53350;52.210;5.160;2023-10-08T07:53:28;102655.81;;;16.17;76.28
66524;BME280;53350;52.210;5.160;2023-10-08T07:56:03;102648.00;;;16.22;76.17
66524;BME280;53350;52.210;5.160;2023-10-08T07:58:33;102639.28;;;16.25;76.26
66524;BME280;53350;52.210;5.160;2023-10-08T08:01:03;102649.69;;;16.26;76.49
66524;BME280;53350;52.210;5.160;2023-10-08T08:03:31;102659.25;;;16.23;75.77
66524;BME280;53350;52.210;5.160;2023-10-08T08:06:02;102656.63;;;16.27;75.82
66524;BME280;53350;52.210;5.160;2023-10-08T08:08:31;102659.22;;;16.29;76.13
66524;BME280;53350;52.210;5.160;2023-10-08T08:10:58;102661.75;;;16.35;76.29
66524;BME280;53350;52.210;5.160;2023-10-08T08:13:29;102664.31;;;16.44;75.93
66524;BME280;53350;52.210;5.160;2023-10-08T08:15:57;102659.94;;;16.48;75.64
66524;BME280;53350;52.210;5.160;2023-10-08T08:18:34;102666.78;;;16.57;74.88
66524;BME280;53350;52.210;5.160;2023-10-08T08:21:01;102673.72;;;16.61;74.65
66524;BME280;53350;52.210;5.160;2023-10-08T08:23:29;102668.50;;;16.61;74.42
66524;BME280;53350;52.210;5.160;2023-10-08T08:25:56;102685.81;;;16.65;74.61
66524;BME280;53350;52.210;5.160;2023-10-08T08:28:33;102684.06;;;16.70;74.09
66524;BME280;53350;52.210;5.160;2023-10-08T08:31:04;102693.56;;;16.76;73.74
66524;BME280;53350;52.210;5.160;2023-10-08T08:33:39;102693.53;;;16.77;73.47
66524;BME280;53350;52.210;5.160;2023-10-08T08:36:18;102701.31;;;16.82;73.32
66524;BME280;53350;52.210;5.160;2023-10-08T08:38:44;102696.13;;;16.74;73.60
66524;BME280;53350;52.210;5.160;2023-10-08T08:41:11;102706.47;;;16.86;73.28
66524;BME280;53350;52.210;5.160;2023-10-08T08:43:38;102703.84;;;16.90;73.14
66524;BME280;53350;52.210;5.160;2023-10-08T08:46:10;102694.25;;;16.96;73.10
66524;BME280;53350;52.210;5.160;2023-10-08T08:48:39;102695.00;;;17.09;72.44
66524;BME280;53350;52.210;5.160;2023-10-08T08:51:06;102700.16;;;17.14;71.52
66524;BME280;53350;52.210;5.160;2023-10-08T08:53:34;102694.94;;;17.15;72.09
66524;BME280;53350;52.210;5.160;2023-10-08T08:56:01;102694.03;;;17.19;71.55
66524;BME280;53350;52.210;5.160;2023-10-08T08:58:29;102692.25;;;17.23;71.61
66524;BME280;53350;52.210;5.160;2023-10-08T09:00:56;102681.81;;;17.25;71.06
66524;BME280;53350;52.210;5.160;2023-10-08T09:03:24;102687.91;;;17.25;70.71
66524;BME280;53350;52.210;5.160;2023-10-08T09:05:55;102680.91;;;17.29;70.89
66524;BME280;53350;52.210;5.160;2023-10-08T09:08:22;102674.78;;;17.33;70.70
66524;BME280;53350;52.210;5.160;2023-10-08T09:10:49;102672.13;;;17.37;70.31
66524;BME280;53350;52.210;5.160;2023-10-08T09:13:20;102670.38;;;17.41;69.58
66524;BME280;53350;52.210;5.160;2023-10-08T09:15:47;102672.97;;;17.41;69.84
66524;BME280;53350;52.210;5.160;2023-10-08T09:18:14;102675.56;;;17.43;69.55
66524;BME280;53350;52.210;5.160;2023-10-08T09:20:42;102685.09;;;17.42;69.53
66524;BME280;53350;52.210;5.160;2023-10-08T09:23:10;102680.78;;;17.43;69.56
66524;BME280;53350;52.210;5.160;2023-10-08T09:25:38;102677.22;;;17.48;69.29
66524;BME280;53350;52.210;5.160;2023-10-08T09:28:05;102694.63;;;17.45;69.69
66524;BME280;53350;52.210;5.160;2023-10-08T09:30:33;102704.97;;;17.52;69.19
66524;BME280;53350;52.210;5.160;2023-10-08T09:33:04;102700.53;;;17.59;69.29
66524;BME280;53350;52.210;5.160;2023-10-08T09:35:31;102703.94;;;17.66;69.87
66524;BME280;53350;52.210;5.160;2023-10-08T09:37:59;102696.97;;;17.66;69.24
66524;BME280;53350;52.210;5.160;2023-10-08T09:40:26;102689.91;;;17.76;68.96
66524;BME280;53350;52.210;5.160;2023-10-08T09:42:54;102689.00;;;17.80;68.75
66524;BME280;53350;52.210;5.160;2023-10-08T09:45:21;102692.38;;;17.85;68.92
66524;BME280;53350;52.210;5.160;2023-10-08T09:47:50;102690.59;;;17.94;68.79
66524;BME280;53350;52.210;5.160;2023-10-08T09:50:22;102694.81;;;18.02;68.59
66524;BME280;53350;52.210;5.160;2023-10-08T09:52:57;102696.44;;;18.11;68.54
66524;BME280;53350;52.210;5.160;2023-10-08T09:55:27;102694.59;;;18.19;68.18
66524;BME280;53350;52.210;5.160;2023-10-08T09:57:55;102692.78;;;18.23;68.13
66524;BME280;53350;52.210;5.160;2023-10-08T10:00:23;102684.00;;;18.29;67.49
66524;BME280;53350;52.210;5.160;2023-10-08T10:02:57;102687.41;;;18.34;66.57
66524;BME280;53350;52.210;5.160;2023-10-08T10:05:29;102687.41;;;18.34;66.17
66524;BME280;53350;52.210;5.160;2023-10-08T10:07:56;102686.50;;;18.35;66.15
66524;BME280;53350;52.210;5.160;2023-10-08T10:10:27;102678.84;;;18.24;66.21
66524;BME280;53350;52.210;5.160;2023-10-08T10:12:57;102678.06;;;18.17;66.20
66524;BME280;53350;52.210;5.160;2023-10-08T10:15:25;102683.25;;;18.19;65.83
66524;BME280;53350;52.210;5.160;2023-10-08T10:17:52;102678.06;;;18.17;65.74
66524;BME280;53350;52.210;5.160;2023-10-08T10:20:21;102680.72;;;18.14;65.41
66524;BME280;53350;52.210;5.160;2023-10-08T10:22:47;102679.88;;;18.14;65.70
66524;BME280;53350;52.210;5.160;2023-10-08T10:25:16;102687.59;;;18.20;65.76
66524;BME280;53350;52.210;5.160;2023-10-08T10:30:50;102695.28;;;18.29;65.52
66524;BME280;53350;52.210;5.160;2023-10-08T10:33:17;102707.38;;;18.35;65.59
66524;BME280;53350;52.210;5.160;2023-10-08T10:35:49;102716.84;;;18.40;65.54
66524;BME280;53350;52.210;5.160;2023-10-08T10:38:18;102706.38;;;18.45;65.52
66524;BME280;53350;52.210;5.160;2023-10-08T10:40:48;102703.66;;;18.51;65.66
66524;BME280;53350;52.210;5.160;2023-10-08T10:43:23;102697.50;;;18.57;64.84
66524;BME280;53350;52.210;5.160;2023-10-08T10:45:59;102697.53;;;18.54;64.99
66524;BME280;53350;52.210;5.160;2023-10-08T10:48:30;102688.03;;;18.50;65.46
66524;BME280;53350;52.210;5.160;2023-10-08T10:50:59;102673.25;;;18.49;65.48
66524;BME280;53350;52.210;5.160;2023-10-08T10:53:38;102668.88;;;18.49;65.35
66524;BME280;53350;52.210;5.160;2023-10-08T10:56:12;102675.81;;;18.52;65.60
66524;BME280;53350;52.210;5.160;2023-10-08T10:58:45;102672.25;;;18.57;65.48
66524;BME280;53350;52.210;5.160;2023-10-08T11:01:12;102679.22;;;18.57;65.60
66524;BME280;53350;52.210;5.160;2023-10-08T11:03:49;102683.56;;;18.56;65.38
66524;BME280;53350;52.210;5.160;2023-10-08T11:06:18;102688.81;;;18.53;65.53
66524;BME280;53350;52.210;5.160;2023-10-08T11:08:49;102687.97;;;18.53;65.62
66524;BME280;53350;52.210;5.160;2023-10-08T11:11:16;102690.56;;;18.54;65.49
66524;BME280;53350;52.210;5.160;2023-10-08T11:13:43;102691.38;;;18.56;65.62
66524;BME280;53350;52.210;5.160;2023-10-08T11:16:17;102678.31;;;18.58;65.88
66524;BME280;53350;52.210;5.160;2023-10-08T11:18:47;102684.38;;;18.60;65.79
66524;BME280;53350;52.210;5.160;2023-10-08T11:21:16;102677.38;;;18.62;65.83
66524;BME280;53350;52.210;5.160;2023-10-08T11:23:48;102676.50;;;18.63;66.07
66524;BME280;53350;52.210;5.160;2023-10-08T11:26:19;102672.03;;;18.68;66.12
66524;BME280;53350;52.210;5.160;2023-10-08T11:28:46;102673.69;;;18.74;66.09
66524;BME280;53350;52.210;5.160;2023-10-08T11:31:15;102677.22;;;18.73;66.18
66524;BME280;53350;52.210;5.160;2023-10-08T11:33:46;102675.41;;;18.75;66.45
66524;BME280;53350;52.210;5.160;2023-10-08T11:36:20;102673.66;;;18.77;66.53
66524;BME280;53350;52.210;5.160;2023-10-08T11:38:53;102664.00;;;18.81;66.85
66524;BME280;53350;52.210;5.160;2023-10-08T11:41:26;102664.81;;;18.86;66.71
66524;BME280;53350;52.210;5.160;2023-10-08T11:43:55;102658.69;;;18.88;66.44
66524;BME280;53350;52.210;5.160;2023-10-08T11:46:23;102654.28;;;18.92;66.58
66524;BME280;53350;52.210;5.160;2023-10-08T11:48:54;102654.22;;;18.95;66.75
66524;BME280;53350;52.210;5.160;2023-10-08T11:51:24;102649.78;;;19.00;66.68
66524;BME280;53350;52.210;5.160;2023-10-08T11:53:50;102646.19;;;19.04;66.81
66524;BME280;53350;52.210;5.160;2023-10-08T11:56:18;102654.81;;;19.09;66.94
66524;BME280;53350;52.210;5.160;2023-10-08T11:58:49;102642.53;;;19.13;66.83
66524;BME280;53350;52.210;5.160;2023-10-08T12:01:17;102629.44;;;19.15;67.04
66524;BME280;53350;52.210;5.160;2023-10-08T12:03:43;102623.22;;;19.23;66.83
66524;BME280;53350;52.210;5.160;2023-10-08T12:06:12;102611.88;;;19.23;67.07
66524;BME280;53350;52.210;5.160;2023-10-08T12:08:41;102618.88;;;19.22;67.13
66524;BME280;53350;52.210;5.160;2023-10-08T12:11:10;102610.13;;;19.25;67.21
66524;BME280;53350;52.210;5.160;2023-10-08T12:13:37;102600.41;;;19.30;67.04
66524;BME280;53350;52.210;5.160;2023-10-08T12:16:04;102603.81;;;19.35;66.59
66524;BME280;53350;52.210;5.160;2023-10-08T12:18:32;102598.53;;;19.37;66.97
66524;BME280;53350;52.210;5.160;2023-10-08T12:21:04;102594.06;;;19.42;66.77
66524;BME280;53350;52.210;5.160;2023-10-08T12:23:36;102587.94;;;19.43;66.71
66524;BME280;53350;52.210;5.160;2023-10-08T12:26:03;102578.38;;;19.42;66.72
66524;BME280;53350;52.210;5.160;2023-10-08T12:28:33;102596.69;;;19.42;67.04
66524;BME280;53350;52.210;5.160;2023-10-08T12:31:00;102598.34;;;19.46;67.09
66524;BME280;53350;52.210;5.160;2023-10-08T12:33:26;102581.84;;;19.44;66.79
66524;BME280;53350;52.210;5.160;2023-10-08T12:35:55;102590.72;;;19.37;67.41
66524;BME280;53350;52.210;5.160;2023-10-08T12:38:22;102591.47;;;19.40;67.04
66524;BME280;53350;52.210;5.160;2023-10-08T12:40:50;102574.91;;;19.41;67.52
66524;BME280;53350;52.210;5.160;2023-10-08T12:43:18;102572.28;;;19.43;67.61
66524;BME280;53350;52.210;5.160;2023-10-08T12:45:46;102563.53;;;19.44;67.45
66524;BME280;53350;52.210;5.160;2023-10-08T12:48:18;102557.44;;;19.43;67.60
66524;BME280;53350;52.210;5.160;2023-10-08T12:50:45;102555.63;;;19.47;67.12
66524;BME280;53350;52.210;5.160;2023-10-08T12:53:18;102564.28;;;19.49;67.33
66524;BME280;53350;52.210;5.160;2023-10-08T12:55:50;102565.19;;;19.48;67.66
66524;BME280;53350;52.210;5.160;2023-10-08T12:58:20;102563.47;;;19.47;67.54
66524;BME280;53350;52.210;5.160;2023-10-08T13:00:51;102561.63;;;19.51;67.21
66524;BME280;53350;52.210;5.160;2023-10-08T13:03:23;102550.22;;;19.55;67.00
66524;BME280;53350;52.210;5.160;2023-10-08T13:05:49;102556.25;;;19.58;66.81
66524;BME280;53350;52.210;5.160;2023-10-08T13:08:17;102553.53;;;19.63;66.92
66524;BME280;53350;52.210;5.160;2023-10-08T13:10:45;102559.59;;;19.63;66.91